Time;durP1;ratioP1;P1;durP2;ratioP2;P2;SDS_P1;SDS_P2;PMS_P1;PMS_P2;Temp;Humidity;BMP_temperature;BMP_pressure;BME280_temperature;BME280_humidity;BME280_pressure;Samples;Min_cycle;Max_cycle;Signal;HPM_P1;HPM_P2
2023/04/08 00:00:32;;;;;;;17.50;12.47;;;8.90;77.80;;;;;;5081913;28;20463;-62
2023/04/08 00:03:11;;;;;;;17.50;11.80;;;8.90;77.80;;;;;;5080779;28;20754;-62
2023/04/08 00:05:43;;;;;;;17.37;11.43;;;8.80;77.80;;;;;;5082909;28;20461;-62
2023/04/08 00:08:15;;;;;;;58.80;20.55;;;8.80;77.80;;;;;;5081629;28;20457;-62
2023/04/08 00:10:48;;;;;;;24.53;14.10;;;8.80;77.70;;;;;;5087540;28;20205;-62
2023/04/08 00:13:25;;;;;;;23.57;14.10;;;8.70;77.50;;;;;;5083098;28;20460;-63
2023/04/08 00:15:56;;;;;;;19.63;11.40;;;8.70;77.60;;;;;;5083542;28;20496;-62
2023/04/08 00:18:28;;;;;;;19.63;12.30;;;8.60;77.60;;;;;;5081916;28;20601;-62
2023/04/08 00:21:06;;;;;;;23.53;12.60;;;8.60;77.70;;;;;;5081662;28;20990;-62
2023/04/08 00:23:39;;;;;;;23.03;13.37;;;8.60;77.70;;;;;;5083393;28;20834;-62
2023/04/08 00:26:20;;;;;;;21.27;12.93;;;8.60;77.80;;;;;;5087860;28;20680;-62
2023/04/08 00:28:59;;;;;;;22.63;14.00;;;8.60;77.80;;;;;;5081341;28;20464;-62
2023/04/08 00:31:41;;;;;;;18.13;10.27;;;8.60;77.80;;;;;;5078526;28;20568;-62
2023/04/08 00:34:15;;;;;;;17.15;10.70;;;8.50;77.60;;;;;;5080648;28;20471;-63
2023/04/08 00:36:46;;;;;;;18.00;11.33;;;8.50;77.60;;;;;;5085646;28;20203;-62
2023/04/08 00:39:21;;;;;;;19.37;12.20;;;8.50;77.40;;;;;;5083523;28;20451;-62
2023/04/08 00:41:56;;;;;;;17.90;11.88;;;8.40;77.60;;;;;;5085487;28;20457;-63
2023/04/08 00:44:44;;;;;;;18.13;11.90;;;8.40;77.60;;;;;;5081462;28;20298;-63
2023/04/08 00:47:20;;;;;;;19.60;12.90;;;8.40;77.40;;;;;;5081009;28;20525;-63
2023/04/08 00:49:53;;;;;;;21.73;12.60;;;8.40;77.60;;;;;;5080080;28;20352;-63
2023/04/08 00:52:32;;;;;;;19.10;12.10;;;8.40;77.60;;;;;;5078918;28;20469;-63
2023/04/08 00:55:15;;;;;;;15.90;11.47;;;8.40;77.40;;;;;;5080084;28;20479;-62
2023/04/08 00:57:53;;;;;;;15.43;11.10;;;8.30;77.50;;;;;;5082442;28;20518;-63
2023/04/08 01:00:32;;;;;;;17.67;12.18;;;8.30;77.50;;;;;;5076747;28;20458;-62
2023/04/08 01:03:14;;;;;;;16.45;11.60;;;8.30;77.60;;;;;;5082186;28;20303;-63
2023/04/08 01:06:00;;;;;;;16.70;12.00;;;8.40;77.70;;;;;;5084512;28;20646;-63
2023/04/08 01:08:33;;;;;;;16.15;10.70;;;8.40;77.70;;;;;;5081011;28;20458;-63
2023/04/08 01:11:14;;;;;;;17.80;11.90;;;8.40;77.80;;;;;;5083188;28;20281;-63
2023/04/08 01:13:52;;;;;;;16.50;11.47;;;8.50;77.80;;;;;;5080085;28;20543;-62
2023/04/08 01:16:30;;;;;;;13.90;9.97;;;8.50;77.60;;;;;;5082014;28;20809;-62
2023/04/08 01:19:05;;;;;;;16.33;10.90;;;8.50;77.60;;;;;;5080682;28;20487;-63
2023/04/08 01:21:38;;;;;;;16.03;11.20;;;8.50;77.60;;;;;;5080058;28;20479;-62
2023/04/08 01:24:16;;;;;;;16.27;10.40;;;8.40;77.60;;;;;;5066157;28;20480;-62
2023/04/08 01:26:56;;;;;;;17.33;12.40;;;8.40;77.60;;;;;;5085116;28;20963;-62
2023/04/08 01:29:27;;;;;;;18.17;11.83;;;8.40;77.60;;;;;;5079893;28;20564;-63
2023/04/08 01:32:00;;;;;;;15.90;11.17;;;8.50;77.60;;;;;;5076122;28;20569;-62
2023/04/08 01:34:35;;;;;;;17.80;11.13;;;8.50;77.60;;;;;;5063034;28;20469;-63
2023/04/08 01:37:10;;;;;;;14.70;10.45;;;8.50;77.70;;;;;;5068398;28;20466;-62
2023/04/08 01:39:46;;;;;;;13.63;10.10;;;8.50;77.60;;;;;;5065475;28;20219;-64
2023/04/08 01:42:23;;;;;;;14.73;10.20;;;8.50;77.60;;;;;;5061924;28;20455;-64
2023/04/08 01:44:56;;;;;;;14.70;10.00;;;8.40;77.60;;;;;;5059368;28;20453;-64
2023/04/08 01:47:30;;;;;;;16.57;11.17;;;8.40;77.60;;;;;;5080105;28;20267;-64
2023/04/08 01:50:04;;;;;;;18.05;12.68;;;8.40;77.40;;;;;;5059638;28;20452;-62
2023/04/08 01:52:45;;;;;;;18.60;12.87;;;8.40;77.60;;;;;;5077757;28;20206;-64
2023/04/08 01:55:25;;;;;;;15.67;11.57;;;8.40;77.60;;;;;;5065901;28;20525;-64
2023/04/08 01:58:04;;;;;;;15.48;11.75;;;8.40;77.60;;;;;;5059228;28;20522;-65
2023/04/08 02:00:46;;;;;;;19.53;12.43;;;8.40;77.60;;;;;;5062673;28;20697;-63
2023/04/08 02:03:19;;;;;;;17.37;11.80;;;8.40;77.60;;;;;;5081555;28;20467;-62
2023/04/08 02:05:59;;;;;;;15.40;10.80;;;8.40;77.40;;;;;;5080297;28;20470;-62
2023/04/08 02:08:34;;;;;;;14.75;11.48;;;8.30;77.50;;;;;;5061535;28;20224;-62
2023/04/08 02:11:10;;;;;;;18.33;12.65;;;8.30;77.50;;;;;;5079117;28;20835;-62
2023/04/08 02:13:46;;;;;;;17.23;12.63;;;8.30;77.50;;;;;;5065588;28;20233;-62
2023/04/08 02:16:28;;;;;;;17.88;12.52;;;8.30;77.50;;;;;;5063454;28;20596;-62
2023/04/08 02:19:10;;;;;;;15.03;10.43;;;8.30;77.50;;;;;;5077769;28;20220;-62
2023/04/08 02:21:50;;;;;;;17.27;11.23;;;8.30;77.50;;;;;;5068270;28;20514;-63
2023/04/08 02:24:30;;;;;;;14.70;10.57;;;8.20;77.40;;;;;;5080765;28;20201;-63
2023/04/08 02:27:07;;;;;;;16.10;10.88;;;8.20;77.30;;;;;;5078356;28;20444;-63
2023/04/08 02:29:44;;;;;;;15.93;9.88;;;8.10;77.30;;;;;;5079817;28;20854;-62
2023/04/08 02:32:19;;;;;;;15.23;10.27;;;8.10;77.30;;;;;;5075983;28;20221;-63
2023/04/08 02:34:56;;;;;;;12.98;8.98;;;8.10;77.30;;;;;;5079219;28;20242;-63
2023/04/08 02:37:31;;;;;;;13.80;9.18;;;8.10;77.30;;;;;;5064082;28;20560;-63
2023/04/08 02:40:00;;;;;;;16.63;10.65;;;8.10;77.30;;;;;;5079483;28;20231;-63
2023/04/08 02:42:31;;;;;;;14.43;9.88;;;8.10;77.30;;;;;;5081966;28;20217;-63
2023/04/08 02:45:07;;;;;;;17.65;10.32;;;8.10;77.30;;;;;;5079879;28;20200;-62
2023/04/08 02:47:54;;;;;;;16.23;11.53;;;8.10;77.30;;;;;;5080431;28;20235;-64
2023/04/08 02:50:28;;;;;;;16.60;10.83;;;8.00;77.30;;;;;;5076868;28;20456;-61
2023/04/08 02:53:08;;;;;;;16.77;10.63;;;8.00;77.40;;;;;;5060608;28;20466;-62
2023/04/08 02:55:40;;;;;;;17.92;11.20;;;8.00;77.40;;;;;;5068070;28;20559;-61
2023/04/08 02:58:13;;;;;;;17.92;11.52;;;8.00;77.40;;;;;;5079550;28;20347;-62
2023/04/08 03:00:50;;;;;;;17.17;11.32;;;8.00;77.40;;;;;;5077308;28;20229;-61
2023/04/08 03:03:31;;;;;;;19.88;12.63;;;8.00;77.40;;;;;;5077750;28;20871;-62
2023/04/08 03:06:05;;;;;;;18.45;12.02;;;8.00;77.40;;;;;;5076774;28;20222;-62
2023/04/08 03:08:37;;;;;;;17.88;11.85;;;8.00;77.30;;;;;;5081933;28;20201;-63
2023/04/08 03:11:12;;;;;;;16.35;11.50;;;8.00;77.30;;;;;;5080977;28;20542;-63
2023/04/08 03:13:46;;;;;;;17.23;11.70;;;8.00;77.40;;;;;;5083892;28;20249;-62
2023/04/08 03:16:31;;;;;;;17.65;12.05;;;7.90;77.40;;;;;;5084497;28;20532;-63
2023/04/08 03:19:04;;;;;;;16.75;11.63;;;8.00;77.40;;;;;;5081501;28;20217;-62
2023/04/08 03:21:40;;;;;;;18.90;12.20;;;7.90;77.40;;;;;;5080536;28;20216;-63
2023/04/08 03:24:12;;;;;;;17.05;11.80;;;7.90;77.40;;;;;;5080244;28;20206;-62
2023/04/08 03:26:44;;;;;;;17.97;12.00;;;7.90;77.50;;;;;;5081930;28;20299;-62
2023/04/08 03:29:25;;;;;;;19.63;11.98;;;7.90;77.50;;;;;;5083085;28;20483;-62
2023/04/08 03:32:19;;;;;;;28.75;16.05;;;7.90;77.30;;;;;;5077078;28;20237;-63
2023/04/08 03:34:55;;;;;;;21.92;13.30;;;7.80;77.20;;;;;;5084097;28;20208;-62
2023/04/08 03:37:33;;;;;;;25.53;14.10;;;7.70;77.30;;;;;;5086242;28;20769;-62
2023/04/08 03:40:06;;;;;;;23.08;12.93;;;7.70;77.40;;;;;;5070923;28;20450;-63
2023/04/08 03:42:38;;;;;;;20.38;13.20;;;7.60;77.50;;;;;;5081792;28;20253;-62
2023/04/08 03:45:16;;;;;;;19.83;12.63;;;7.60;77.50;;;;;;5084337;28;20198;-63
2023/04/08 03:47:59;;;;;;;18.90;11.32;;;7.70;77.50;;;;;;5082277;28;20223;-62
2023/04/08 03:50:32;;;;;;;17.70;11.93;;;7.60;77.50;;;;;;5078018;28;20288;-62
2023/04/08 03:53:05;;;;;;;18.50;12.00;;;7.60;77.50;;;;;;5064099;28;20646;-63
2023/04/08 03:58:20;;;;;;;13.45;9.43;;;7.60;77.40;;;;;;5079083;28;20664;-62
2023/04/08 04:00:59;;;;;;;12.80;9.57;;;7.50;77.40;;;;;;5077205;28;20245;-63
2023/04/08 04:03:48;;;;;;;16.98;8.30;;;7.50;77.40;;;;;;5076931;28;20198;-63
2023/04/08 04:06:20;;;;;;;27.92;10.70;;;7.50;77.40;;;;;;5084407;28;20428;-62
2023/04/08 04:08:55;;;;;;;11.27;8.30;;;7.40;77.30;;;;;;5081915;28;20200;-62
2023/04/08 04:11:30;;;;;;;9.85;7.95;;;7.40;77.30;;;;;;5078590;28;20259;-62
2023/04/08 04:14:10;;;;;;;11.48;8.63;;;7.40;77.30;;;;;;5078880;28;20196;-62
2023/04/08 04:16:49;;;;;;;10.45;8.50;;;7.40;77.40;;;;;;5085055;28;20307;-62
2023/04/08 04:19:26;;;;;;;13.07;8.98;;;7.30;77.40;;;;;;5081570;28;20228;-62
2023/04/08 04:22:00;;;;;;;11.27;8.63;;;7.30;77.30;;;;;;5079276;28;20212;-63
2023/04/08 04:24:32;;;;;;;11.15;7.38;;;7.30;77.20;;;;;;5076112;28;20268;-63
2023/04/08 04:27:02;;;;;;;11.18;7.93;;;7.20;77.30;;;;;;5081339;28;20617;-63
2023/04/08 04:29:34;;;;;;;12.77;9.68;;;7.20;77.30;;;;;;5079841;28;20278;-63
2023/04/08 04:32:06;;;;;;;14.05;10.68;;;7.20;77.30;;;;;;5079913;28;20821;-63
2023/04/08 04:34:40;;;;;;;13.80;10.75;;;7.20;77.40;;;;;;5079062;28;20254;-63
2023/04/08 04:37:13;;;;;;;13.55;10.10;;;7.20;77.40;;;;;;5086695;28;20223;-63
2023/04/08 04:39:50;;;;;;;15.70;10.13;;;7.10;77.40;;;;;;5082706;28;20226;-63
2023/04/08 04:42:22;;;;;;;10.02;7.80;;;7.20;77.40;;;;;;5082753;28;20226;-62
2023/04/08 04:45:04;;;;;;;13.27;9.00;;;7.20;77.40;;;;;;5082357;28;20220;-63
2023/04/08 04:47:41;;;;;;;33.78;9.40;;;7.20;77.40;;;;;;5080569;28;20200;-63
2023/04/08 04:50:28;;;;;;;12.18;8.05;;;7.10;77.30;;;;;;5064958;28;20215;-63
2023/04/08 04:53:02;;;;;;;13.10;9.55;;;7.10;77.20;;;;;;5080060;28;20696;-63
2023/04/08 04:55:35;;;;;;;13.60;9.65;;;7.10;77.20;;;;;;5079845;28;20212;-63
2023/04/08 05:01:01;;;;;;;16.15;9.30;;;7.10;77.30;;;;;;5075070;28;20237;-62
2023/04/08 05:03:34;;;;;;;13.15;9.85;;;7.00;77.30;;;;;;5076049;28;20754;-62
2023/04/08 05:06:09;;;;;;;12.07;9.13;;;7.00;77.40;;;;;;5079754;28;21391;-63
2023/04/08 05:08:51;;;;;;;10.60;8.45;;;7.10;77.50;;;;;;5083030;28;20205;-63
2023/04/08 05:11:25;;;;;;;11.00;8.18;;;7.10;77.50;;;;;;5081418;28;20202;-62
2023/04/08 05:13:58;;;;;;;10.57;7.95;;;7.10;77.50;;;;;;5080302;28;20213;-63
2023/04/08 05:16:29;;;;;;;12.05;8.95;;;7.10;77.40;;;;;;5083139;28;20205;-63
2023/04/08 05:19:03;;;;;;;11.60;8.45;;;7.10;77.40;;;;;;5079652;28;20209;-62
2023/04/08 05:21:51;;;;;;;12.23;9.00;;;7.10;77.50;;;;;;5077699;28;20602;-63
2023/04/08 05:24:26;;;;;;;10.48;8.65;;;7.20;77.50;;;;;;5080521;28;20221;-63
2023/04/08 05:27:00;;;;;;;10.68;8.35;;;7.20;77.40;;;;;;5081180;28;20207;-62
2023/04/08 05:29:38;;;;;;;10.57;8.35;;;7.20;77.50;;;;;;5081691;28;20202;-63
2023/04/08 05:32:15;;;;;;;10.00;8.07;;;7.20;77.50;;;;;;5075974;28;20630;-63
2023/04/08 05:34:50;;;;;;;10.70;8.35;;;7.20;77.60;;;;;;5083077;28;20223;-63
2023/04/08 05:37:27;;;;;;;11.30;8.50;;;7.20;77.50;;;;;;5083083;28;20989;-62
2023/04/08 05:40:04;;;;;;;10.05;8.50;;;7.30;77.60;;;;;;5080073;28;20299;-62
2023/04/08 05:42:44;;;;;;;11.25;8.27;;;7.30;77.60;;;;;;5081203;28;20667;-62
2023/04/08 05:45:17;;;;;;;12.30;9.15;;;7.40;77.60;;;;;;5082947;28;20206;-62
2023/04/08 05:47:48;;;;;;;9.95;8.10;;;7.40;77.60;;;;;;5083654;28;20201;-63
2023/04/08 05:50:23;;;;;;;12.15;9.45;;;7.50;77.60;;;;;;5077023;28;20727;-62
2023/04/08 05:52:57;;;;;;;10.60;8.70;;;7.50;77.60;;;;;;5079060;28;20224;-62
2023/04/08 05:55:38;;;;;;;14.57;9.30;;;7.50;77.60;;;;;;5083519;28;20216;-62
2023/04/08 05:58:09;;;;;;;12.18;9.40;;;7.50;77.60;;;;;;5080798;28;20234;-63
2023/04/08 06:00:40;;;;;;;11.45;9.00;;;7.50;77.60;;;;;;5080917;28;20235;-63
2023/04/08 06:03:15;;;;;;;11.85;8.80;;;7.60;77.60;;;;;;5077174;28;20205;-62
2023/04/08 06:05:51;;;;;;;12.30;9.55;;;7.60;77.70;;;;;;5083677;28;20201;-63
2023/04/08 06:08:26;;;;;;;15.77;9.60;;;7.60;77.70;;;;;;5076307;28;20198;-63
2023/04/08 06:10:58;;;;;;;12.80;9.03;;;7.60;77.70;;;;;;5080188;28;20231;-62
2023/04/08 06:13:38;;;;;;;13.75;9.95;;;7.70;77.70;;;;;;5080716;28;20944;-62
2023/04/08 06:16:17;;;;;;;13.65;9.95;;;7.70;77.80;;;;;;5076314;28;20198;-63
2023/04/08 06:18:50;;;;;;;13.63;9.63;;;7.70;77.80;;;;;;5079700;28;20337;-62
2023/04/08 06:24:29;;;;;;;13.20;9.47;;;7.80;77.80;;;;;;5080481;28;20260;-62
2023/04/08 06:27:00;;;;;;;13.20;9.55;;;7.90;77.90;;;;;;5082124;28;20455;-62
2023/04/08 06:29:35;;;;;;;13.98;10.52;;;7.90;77.80;;;;;;5080556;28;20209;-63
2023/04/08 06:32:19;;;;;;;13.18;9.95;;;7.90;77.90;;;;;;5064026;28;20225;-63
2023/04/08 06:34:59;;;;;;;17.42;10.30;;;7.90;77.90;;;;;;5082185;28;20232;-62
2023/04/08 06:37:37;;;;;;;13.70;9.60;;;8.00;77.80;;;;;;5078220;28;20229;-62
2023/04/08 06:40:12;;;;;;;14.13;10.00;;;8.00;77.90;;;;;;5078083;28;20498;-63
2023/04/08 06:42:43;;;;;;;14.85;10.63;;;8.10;78.00;;;;;;5080965;28;20970;-63
2023/04/08 06:45:25;;;;;;;16.37;10.87;;;8.10;78.00;;;;;;5084147;28;20213;-63
2023/04/08 06:47:55;;;;;;;14.77;9.97;;;8.20;78.00;;;;;;5082186;28;20476;-62
2023/04/08 06:50:36;;;;;;;17.30;11.83;;;8.30;78.00;;;;;;5079861;28;21526;-62
2023/04/08 06:53:18;;;;;;;13.67;9.67;;;8.30;78.00;;;;;;5087784;28;20830;-63
2023/04/08 06:56:05;;;;;;;17.20;10.67;;;8.30;78.00;;;;;;5083949;28;20459;-63
2023/04/08 06:58:36;;;;;;;16.20;11.33;;;8.40;78.00;;;;;;5086136;28;20488;-63
2023/04/08 07:01:15;;;;;;;14.43;11.20;;;8.40;78.00;;;;;;5082077;28;20501;-62
2023/04/08 07:03:47;;;;;;;16.30;11.50;;;8.40;78.00;;;;;;5090308;28;20211;-63
2023/04/08 07:06:21;;;;;;;17.27;12.02;;;8.50;78.00;;;;;;5080927;28;21111;-62
2023/04/08 07:08:53;;;;;;;16.13;11.47;;;8.50;78.00;;;;;;5082341;28;20211;-63
2023/04/08 07:11:32;;;;;;;21.60;12.27;;;8.50;78.00;;;;;;5083224;28;20479;-62
2023/04/08 07:14:04;;;;;;;15.90;12.00;;;8.50;78.00;;;;;;5085128;28;20537;-62
2023/04/08 07:16:35;;;;;;;17.57;12.47;;;8.50;78.10;;;;;;5080709;28;20525;-63
2023/04/08 07:19:04;;;;;;;16.20;12.07;;;8.50;78.10;;;;;;5082982;28;20980;-63
2023/04/08 07:21:35;;;;;;;14.20;10.90;;;8.50;78.10;;;;;;5084117;28;20841;-63
2023/04/08 07:24:11;;;;;;;14.37;9.97;;;8.50;78.10;;;;;;5085244;28;20475;-63
2023/04/08 07:26:55;;;;;;;15.80;11.40;;;8.60;78.00;;;;;;5086293;28;20472;-63
2023/04/08 07:29:37;;;;;;;17.90;12.10;;;8.60;78.10;;;;;;5084488;28;20445;-63
2023/04/08 07:32:16;;;;;;;18.77;12.27;;;8.70;78.00;;;;;;5080808;28;20491;-62
2023/04/08 07:34:54;;;;;;;16.50;11.40;;;8.70;77.80;;;;;;5088097;28;20532;-63
2023/04/08 07:37:24;;;;;;;15.13;11.33;;;8.60;77.70;;;;;;5080311;28;20544;-63
2023/04/08 07:39:59;;;;;;;17.70;11.50;;;8.60;77.80;;;;;;5083377;28;20502;-62
2023/04/08 07:42:46;;;;;;;16.60;12.50;;;8.60;77.80;;;;;;5081574;28;20479;-63
2023/04/08 07:45:20;;;;;;;19.00;12.47;;;8.60;77.70;;;;;;5085861;28;20888;-62
2023/04/08 07:47:50;;;;;;;15.27;11.93;;;8.60;77.80;;;;;;5083585;28;20551;-62
2023/04/08 07:50:32;;;;;;;17.60;11.80;;;8.60;77.80;;;;;;5085107;28;20453;-63
2023/04/08 07:53:25;;;;;;;21.77;15.77;;;8.70;77.70;;;;;;5086046;28;20465;-62
2023/04/08 07:55:59;;;;;;;17.83;12.87;;;8.60;77.60;;;;;;5079046;28;21318;-62
2023/04/08 07:58:46;;;;;;;18.27;13.20;;;8.70;77.60;;;;;;5086346;28;20510;-62
2023/04/08 08:01:20;;;;;;;17.50;13.03;;;8.70;77.70;;;;;;5083734;28;20478;-62
2023/04/08 08:03:57;;;;;;;16.23;11.43;;;8.70;77.80;;;;;;5083934;28;20540;-63
2023/04/08 08:06:43;;;;;;;16.33;11.73;;;8.80;77.80;;;;;;5086694;28;20479;-63
2023/04/08 08:09:24;;;;;;;16.60;10.90;;;8.80;77.80;;;;;;5063590;28;20529;-63
2023/04/08 08:11:57;;;;;;;17.50;12.10;;;8.90;77.80;;;;;;5080551;28;20456;-63
2023/04/08 08:14:34;;;;;;;17.70;11.60;;;8.90;77.70;;;;;;5078883;28;20552;-63
2023/04/08 08:17:09;;;;;;;22.07;15.53;;;8.90;77.70;;;;;;5081828;28;20939;-62
2023/04/08 08:19:40;;;;;;;18.67;13.90;;;8.90;77.60;;;;;;5080916;28;20485;-63
2023/04/08 08:22:19;;;;;;;18.63;13.37;;;8.90;77.50;;;;;;5080347;28;20777;-62
2023/04/08 08:24:58;;;;;;;21.70;15.17;;;8.90;77.40;;;;;;5085280;28;20468;-62
2023/04/08 08:27:30;;;;;;;19.90;13.50;;;8.90;77.30;;;;;;5085171;28;20510;-63
2023/04/08 08:30:21;;;;;;;17.50;12.50;;;8.90;77.20;;;;;;5080860;28;20548;-62
2023/04/08 08:32:57;;;;;;;19.57;14.53;;;8.90;77.20;;;;;;5078672;28;20460;-64
2023/04/08 08:35:30;;;;;;;18.13;12.70;;;8.80;77.20;;;;;;5085268;28;20565;-62
2023/04/08 08:38:02;;;;;;;17.93;12.60;;;8.70;77.10;;;;;;5082999;28;20497;-62
2023/04/08 08:40:42;;;;;;;17.30;13.27;;;8.70;77.00;;;;;;5084062;28;21029;-62
2023/04/08 08:43:14;;;;;;;15.70;11.40;;;8.70;77.20;;;;;;5083259;28;20460;-62
2023/04/08 08:45:53;;;;;;;15.47;11.47;;;8.70;77.20;;;;;;5080380;28;20921;-62
2023/04/08 08:48:25;;;;;;;16.97;12.30;;;8.80;77.10;;;;;;5084806;28;20761;-64
2023/04/08 08:51:06;;;;;;;19.20;12.50;;;8.90;77.00;;;;;;5077764;28;20525;-63
2023/04/08 08:53:37;;;;;;;21.70;14.60;;;8.90;77.00;;;;;;5078892;28;20457;-63
2023/04/08 08:56:13;;;;;;;19.67;13.03;;;8.90;77.00;;;;;;5081235;28;20933;-61
2023/04/08 08:58:47;;;;;;;18.17;12.50;;;9.00;76.90;;;;;;5080157;28;20484;-62
2023/04/08 09:01:47;;;;;;;19.10;12.30;;;9.00;76.80;;;;;;5077082;28;20485;-64
2023/04/08 09:04:24;;;;;;;16.30;11.63;;;9.00;76.50;;;;;;5080139;28;20480;-62
2023/04/08 09:07:17;;;;;;;18.30;12.50;;;9.00;76.50;;;;;;5079525;28;20505;-62
2023/04/08 09:09:53;;;;;;;17.23;11.67;;;9.00;76.40;;;;;;5081327;28;20460;-64
2023/04/08 09:12:23;;;;;;;19.43;12.37;;;9.00;76.50;;;;;;5078881;28;20488;-63
2023/04/08 09:15:05;;;;;;;16.10;12.23;;;9.00;76.20;;;;;;5080611;28;20452;-63
2023/04/08 09:17:41;;;;;;;16.83;12.90;;;9.00;76.20;;;;;;5080603;28;20526;-62
2023/04/08 09:20:15;;;;;;;18.87;12.23;;;9.00;76.10;;;;;;5077392;28;20484;-62
2023/04/08 09:23:06;;;;;;;15.43;10.90;;;9.00;75.90;;;;;;5081746;28;20795;-62
2023/04/08 09:25:40;;;;;;;16.97;11.50;;;9.00;75.90;;;;;;5078243;28;20851;-62
2023/04/08 09:28:23;;;;;;;18.20;11.50;;;9.10;75.80;;;;;;5078041;28;20465;-62
2023/04/08 09:30:55;;;;;;;16.10;11.70;;;9.10;75.70;;;;;;5078734;28;20476;-63
2023/04/08 09:33:35;;;;;;;17.80;12.23;;;9.20;75.70;;;;;;5080323;28;20452;-63
2023/04/08 09:36:15;;;;;;;14.67;10.47;;;9.20;75.70;;;;;;5079127;28;20459;-63
2023/04/08 09:38:49;;;;;;;18.80;11.87;;;9.30;75.60;;;;;;5079585;28;21140;-64
2023/04/08 09:41:26;;;;;;;15.67;11.17;;;9.30;75.50;;;;;;5077574;28;20496;-63
2023/04/08 09:44:00;;;;;;;17.13;11.33;;;9.40;75.30;;;;;;5081337;28;20471;-61
2023/04/08 09:46:40;;;;;;;16.60;11.80;;;9.30;75.10;;;;;;5067557;28;20504;-62
2023/04/08 09:49:30;;;;;;;16.27;11.67;;;9.40;75.20;;;;;;5082405;28;20459;-63
2023/04/08 09:52:09;;;;;;;16.13;11.07;;;9.50;74.80;;;;;;5074826;28;20481;-62
2023/04/08 09:54:52;;;;;;;16.27;10.50;;;9.60;74.70;;;;;;5076120;28;20523;-62
2023/04/08 09:57:36;;;;;;;15.27;10.47;;;9.60;74.30;;;;;;5083473;28;20567;-63
2023/04/08 10:00:21;;;;;;;18.70;10.90;;;9.60;74.30;;;;;;5078283;28;20531;-62
2023/04/08 10:03:01;;;;;;;14.40;10.07;;;9.60;73.80;;;;;;5078697;28;20489;-64
2023/04/08 10:05:38;;;;;;;14.13;10.70;;;9.70;74.20;;;;;;5082797;28;20513;-62
2023/04/08 10:08:16;;;;;;;16.60;10.17;;;9.80;73.90;;;;;;5079178;28;20457;-64
2023/04/08 10:10:47;;;;;;;12.93;9.57;;;9.90;74.10;;;;;;5081554;28;20468;-64
2023/04/08 10:13:19;;;;;;;15.20;9.80;;;10.00;73.90;;;;;;5082092;28;20453;-64
2023/04/08 10:15:53;;;;;;;16.57;10.57;;;10.10;73.70;;;;;;5080004;28;20452;-64
2023/04/08 10:18:33;;;;;;;13.10;9.13;;;10.10;73.60;;;;;;5083180;28;20937;-64
2023/04/08 10:21:32;;;;;;;13.90;9.03;;;10.10;73.30;;;;;;5083044;28;20528;-63
2023/04/08 10:24:06;;;;;;;12.30;8.63;;;10.10;73.10;;;;;;5084083;28;20556;-62
2023/04/08 10:26:44;;;;;;;12.30;8.70;;;10.20;73.20;;;;;;5087788;28;20487;-64
2023/04/08 10:29:35;;;;;;;14.00;8.90;;;10.10;73.00;;;;;;5084058;28;20473;-63
2023/04/08 10:32:15;;;;;;;15.33;10.27;;;10.10;73.10;;;;;;5082456;28;20473;-64
2023/04/08 10:34:56;;;;;;;13.77;9.57;;;10.10;73.10;;;;;;5084507;28;20551;-64
2023/04/08 10:37:28;;;;;;;15.07;10.20;;;10.20;73.10;;;;;;5080992;28;20501;-62
2023/04/08 10:40:07;;;;;;;14.73;9.60;;;10.20;73.00;;;;;;5082569;28;20478;-64
2023/04/08 10:42:40;;;;;;;14.23;8.30;;;10.20;73.00;;;;;;5084505;28;20448;-63
2023/04/08 10:45:26;;;;;;;12.40;8.53;;;10.30;72.90;;;;;;5080879;28;20961;-64
2023/04/08 10:47:55;;;;;;;13.10;9.30;;;10.40;73.00;;;;;;5085763;28;20481;-64
2023/04/08 10:50:24;;;;;;;13.83;9.60;;;10.30;72.90;;;;;;5080760;28;20468;-64
2023/04/08 10:52:58;;;;;;;11.80;8.67;;;10.40;72.80;;;;;;5081381;28;20456;-64
2023/04/08 10:55:39;;;;;;;12.70;8.10;;;10.40;72.70;;;;;;5083376;28;20457;-64
2023/04/08 10:58:11;;;;;;;13.00;8.60;;;10.40;72.80;;;;;;5084709;28;20547;-64
2023/04/08 11:03:34;;;;;;;12.43;8.73;;;10.60;72.60;;;;;;5081685;28;20460;-64
2023/04/08 11:06:08;;;;;;;11.20;8.60;;;10.60;72.40;;;;;;5081872;28;20496;-64
2023/04/08 11:08:47;;;;;;;12.23;8.60;;;10.60;72.40;;;;;;5082561;28;20464;-64
2023/04/08 11:11:28;;;;;;;21.73;9.30;;;10.50;72.30;;;;;;5084161;28;20460;-64
2023/04/08 11:14:09;;;;;;;11.90;7.53;;;10.60;72.20;;;;;;5084665;28;20463;-63
2023/04/08 11:16:41;;;;;;;12.80;8.20;;;10.70;72.20;;;;;;5083617;28;20466;-63
2023/04/08 11:19:16;;;;;;;10.73;7.73;;;10.70;72.20;;;;;;5082672;28;20523;-63
2023/04/08 11:21:50;;;;;;;17.70;7.80;;;10.70;72.30;;;;;;5082274;28;20481;-63
2023/04/08 11:24:26;;;;;;;11.50;8.23;;;10.70;72.30;;;;;;5082311;28;20531;-64
2023/04/08 11:26:58;;;;;;;11.90;7.47;;;10.80;72.30;;;;;;5084531;28;20562;-64
2023/04/08 11:29:38;;;;;;;11.63;8.00;;;10.80;72.20;;;;;;5081654;28;20549;-63
2023/04/08 11:32:11;;;;;;;17.00;7.73;;;10.80;72.10;;;;;;5081125;28;20883;-63
2023/04/08 11:34:51;;;;;;;11.23;7.27;;;10.80;72.10;;;;;;5084029;28;20565;-63
2023/04/08 11:37:35;;;;;;;12.17;8.23;;;10.80;72.20;;;;;;5080713;28;20454;-62
2023/04/08 11:40:12;;;;;;;11.17;8.00;;;10.80;71.90;;;;;;5083732;28;20458;-64
2023/04/08 11:42:43;;;;;;;12.47;8.40;;;10.80;72.00;;;;;;5085139;28;21127;-62
2023/04/08 11:45:24;;;;;;;10.13;7.47;;;10.90;72.00;;;;;;5079511;28;20462;-64
2023/04/08 11:48:02;;;;;;;11.10;7.20;;;10.90;71.90;;;;;;5081489;28;20455;-62
2023/04/08 11:50:35;;;;;;;10.43;8.17;;;10.90;71.80;;;;;;5080712;28;20437;-63
2023/04/08 11:53:18;;;;;;;11.73;8.20;;;10.90;71.70;;;;;;5085921;28;20494;-63
2023/04/08 11:55:56;;;;;;;11.10;7.37;;;10.90;71.80;;;;;;5081325;28;20783;-62
2023/04/08 11:58:30;;;;;;;13.03;8.20;;;10.90;71.80;;;;;;5084034;28;20950;-62
2023/04/08 12:01:04;;;;;;;13.07;9.10;;;10.90;71.80;;;;;;5081464;28;20478;-63
2023/04/08 12:03:39;;;;;;;11.80;7.80;;;10.90;71.90;;;;;;5084996;28;20935;-62
2023/04/08 12:06:20;;;;;;;11.40;8.23;;;11.00;71.80;;;;;;5079765;28;20799;-63
2023/04/08 12:08:58;;;;;;;11.57;8.27;;;11.00;71.70;;;;;;5078145;28;21094;-63
2023/04/08 12:11:37;;;;;;;11.10;8.40;;;11.00;71.60;;;;;;5080388;28;20449;-62
2023/04/08 12:14:17;;;;;;;10.90;7.23;;;11.00;71.60;;;;;;5079318;28;21013;-63
2023/04/08 12:16:54;;;;;;;13.83;8.63;;;11.00;71.70;;;;;;5084930;28;20553;-62
2023/04/08 12:19:33;;;;;;;15.43;10.27;;;11.00;71.70;;;;;;5078756;28;20552;-62
2023/04/08 12:22:10;;;;;;;11.13;8.80;;;11.00;71.70;;;;;;5079678;28;20484;-62
2023/04/08 12:24:43;;;;;;;12.10;8.20;;;11.00;71.70;;;;;;5079491;28;20474;-63
2023/04/08 12:27:21;;;;;;;11.67;9.07;;;11.00;71.70;;;;;;5083364;28;20798;-63
2023/04/08 12:29:58;;;;;;;13.33;9.30;;;10.90;71.70;;;;;;5079742;28;20454;-63
2023/04/08 12:32:30;;;;;;;11.50;8.43;;;10.90;71.60;;;;;;5080042;28;20474;-63
2023/04/08 12:35:10;;;;;;;11.97;7.93;;;10.90;71.70;;;;;;5077812;28;20459;-63
2023/04/08 12:37:40;;;;;;;12.17;9.83;;;11.00;71.60;;;;;;5083989;28;20759;-63
2023/04/08 12:40:26;;;;;;;11.80;8.73;;;11.00;71.60;;;;;;5082266;28;20789;-63
2023/04/08 12:43:07;;;;;;;13.10;9.63;;;10.90;71.50;;;;;;5078301;28;20452;-63
2023/04/08 12:45:47;;;;;;;12.73;8.80;;;10.90;71.60;;;;;;5082014;28;20954;-62
2023/04/08 12:48:19;;;;;;;10.73;8.23;;;10.90;71.70;;;;;;5083791;28;20461;-63
2023/04/08 12:50:54;;;;;;;11.57;8.70;;;11.00;71.70;;;;;;5085482;28;20490;-63
2023/04/08 12:53:35;;;;;;;28.40;16.50;;;11.00;71.60;;;;;;5081650;28;20776;-62
2023/04/08 12:56:09;;;;;;;40.77;20.33;;;11.00;71.60;;;;;;5076843;28;20504;-63
2023/04/08 12:58:42;;;;;;;20.40;12.23;;;11.00;71.60;;;;;;5080175;28;20846;-63
2023/04/08 13:01:16;;;;;;;21.87;13.40;;;11.00;71.60;;;;;;5079452;28;20482;-63
2023/04/08 13:03:56;;;;;;;17.17;11.57;;;11.00;71.70;;;;;;5081129;28;20926;-63
2023/04/08 13:06:32;;;;;;;12.00;7.73;;;10.90;71.70;;;;;;5080471;28;20450;-63
2023/04/08 13:09:05;;;;;;;10.43;7.20;;;10.90;71.90;;;;;;5080882;28;20817;-63
2023/04/08 13:11:38;;;;;;;12.23;7.90;;;11.00;72.00;;;;;;5078919;28;20455;-63
2023/04/08 13:14:14;;;;;;;11.13;8.17;;;11.00;72.00;;;;;;5074688;28;20911;-65
2023/04/08 13:16:47;;;;;;;10.67;7.10;;;11.00;72.10;;;;;;5085406;28;20480;-62
2023/04/08 13:19:20;;;;;;;11.03;7.07;;;11.10;72.00;;;;;;5078697;28;20995;-62
2023/04/08 13:21:56;;;;;;;8.87;6.50;;;11.20;71.90;;;;;;5085745;28;20478;-62
2023/04/08 13:24:36;;;;;;;10.80;6.77;;;11.20;71.80;;;;;;5084822;28;20483;-63
2023/04/08 13:27:13;;;;;;;9.40;6.43;;;11.20;71.90;;;;;;5073048;28;20520;-62
2023/04/08 13:29:48;;;;;;;10.10;6.40;;;11.20;72.00;;;;;;5083033;28;20541;-62
2023/04/08 13:32:26;;;;;;;14.30;8.43;;;11.20;71.90;;;;;;5077512;28;21295;-63
2023/04/08 13:35:03;;;;;;;9.07;6.83;;;11.20;71.90;;;;;;5081172;28;20462;-62
2023/04/08 13:37:36;;;;;;;11.90;8.93;;;11.30;71.90;;;;;;5079616;28;20466;-63